Hlavní strana
METAR-TAF:

METAR-TAF

Letiště :

Pontiac Municipal Airport

Pontiac, Illinois, Spojené státy americké

zeměpisná šířka: 40-55-25N, zeměpisná délka: 088-37-31W, výška: 201 m

Aktuální stav počasí

Zpráva byla vytvořena před 29 minutami, v 03:15 UTC
Severoseverovýchodní vítr 7 kt
Teplota 1°C
Vlhkost vzduchu 93%
Tlak 1026 hPa
Viditelnost: 4.0 km
Zataženo ve výšce 400 ft
neznámé

METAR: KPNT 180315Z AUTO 02007KT 2 1/2SM UP OVC004 01/00 A3030 RMK AO2 T00050001

Čas: 21:44 (03:44 UTC)


TAF: chybějící

Stav a předpovědi počasí z více než 4 000 letišť (zprávy METAR a TAF).

Červené a žluté tečky na mapě představují dostupné meteorologické stanice.

Když kurzor umístíte na tečku, zobrazí se název stanice.

Pak kliknutím zobrazíte stav a předpověď počasí.

Chcete-li změnit mapu, kliknutím na zelené tlačítko se znaménkem +mapu přiblížíte, kliknutím na zelené tlačítko se znaménkem – mapu oddálíte a kliknutím na zelené šipky přejdete na sousední mapy.


METAR-TAF: